Seeley, California
Current Conditions -  °F | °C
As of 9:56 PM on Saturday 22 Nov 2014 (Local Time) from KNJK Reporting Station
Clear Clear  
Wind Chill: 59°   Ceiling: Unl
Heat Index: 59°   Visibility: 10mi
Dew Point: 37°   Wind: 3mph
Humidity: 44%   Direction: 190°S
Pressure: 29.89"   Gusts: NA
Location:  32.79°N, 115.69°W
Report Text: KNJK 230556Z AUTO 19003KT 10SM CLR 15/03 A2989 RMK AO2 SLP138 T01500028 10261 20150 55001 PWINO $
Loading
Personal Weather Stations






























Interactive Weather Map New forecast layout! Learn more

10-Day Weather Forecast

Advertisements
Track Severe Weather on mobile